Terminal Aerodrome Forecast
Issued by NWS Twin Cities, MN

Home | Current Version | Previous Version | Text Only | Print | Product List | Glossary Off
Versions: 1 2 3 4 5 6 7 8 9 10 11 12 13 14 15 16 17

000
FTUS43 KMPX 191250 AAA
TAFEAU
TAF AMD
KEAU 191250Z 1913/2012 23003KT 4SM BR SCT002
      TEMPO 1913/1914 BKN001
     FM191400 24004KT 6SM BR SCT025
     FM191500 25007KT P6SM FEW040
     FM200000 18003KT P6SM SKC
     FM201000 17003KT P6SM BKN250=

USA.gov is the U.S. government's official web portal to all federal, state and local government web resources and services.